Back to Top

Language: 

My Weather Underground Personal Weather Station Historical Data with Graphs...

Delerius Weather Station Historical Data
Daily Summary for October 23, 2017 Units:  Metric    English   Both
« Previous Day
Next Day »
Daily Weekly Monthly Yearly Custom
  High: Low: Average:
Temperature: 16.9 °C 8.4 °C 12.4 °C
Dew Point: 13.9 °C 6.8 °C 10.7 °C
Humidity: 95 % 82 % 90 %
Wind Speed: 16.1 km/h 0 km/h 5.5 km/h
Wind Gust: 24.1 km/h - -
Wind:- - SW
Pressure: 1015.1 hPa 1013.1 hPa -
Precipitation: 0.25 mm    
Historical Graphs
 
 
Tabular Data for October 23, 2017
Time Temperature Dew Point Pressure Wind Wind Speed Wind Gust Humidity Rainfall Rate (Hourly) solar Conditions
00:02 8.9 °C 7.2 °C 1014.8 hPa West 8 km/h 14.5 km/h 89 % 0 mm 0 W/m2
00:07 9 °C 7.3 °C 1014.8 hPa West 6.4 km/h 17.7 km/h 89 % 0 mm 0 W/m2
00:12 8.9 °C 7.2 °C 1014.8 hPa West 4.8 km/h 17.7 km/h 89 % 0 mm 0 W/m2
00:17 8.9 °C 7.2 °C 1014.8 hPa West 3.2 km/h 11.3 km/h 89 % 0 mm 0 W/m2
00:22 8.8 °C 7.1 °C 1014.8 hPa West 4.8 km/h 11.3 km/h 89 % 0 mm 0 W/m2
00:27 8.8 °C 7.1 °C 1014.8 hPa West 4.8 km/h 11.3 km/h 89 % 0 mm 0 W/m2
00:33 8.8 °C 7.1 °C 1014.8 hPa West 3.2 km/h 11.3 km/h 89 % 0 mm 0 W/m2
00:38 8.7 °C 7 °C 1014.8 hPa WSW 1.6 km/h 9.7 km/h 89 % 0 mm 0 W/m2
00:43 8.7 °C 7.2 °C 1014.8 hPa WSW 1.6 km/h 8 km/h 90 % 0 mm 0 W/m2
00:48 8.6 °C 6.9 °C 1014.8 hPa WSW 3.2 km/h 8 km/h 89 % 0 mm 0 W/m2
00:53 8.4 °C 6.8 °C 1014.8 hPa WSW 4.8 km/h 11.3 km/h 90 % 0 mm 0 W/m2
00:58 8.4 °C 6.8 °C 1014.8 hPa West 6.4 km/h 12.9 km/h 90 % 0 mm 0 W/m2
01:03 8.4 °C 7 °C 1014.8 hPa West 8 km/h 12.9 km/h 91 % 0 mm 0 W/m2
01:08 8.5 °C 7.1 °C 1014.8 hPa West 8 km/h 11.3 km/h 91 % 0 mm 0 W/m2
01:13 8.6 °C 7.2 °C 1014.8 hPa West 8 km/h 11.3 km/h 91 % 0 mm 0 W/m2
01:18 8.6 °C 7.2 °C 1014.8 hPa West 8 km/h 11.3 km/h 91 % 0 mm 0 W/m2
01:23 8.6 °C 7.4 °C 1014.8 hPa West 6.4 km/h 11.3 km/h 92 % 0 mm 0 W/m2
01:28 8.7 °C 7.5 °C 1014.8 hPa West 4.8 km/h 9.7 km/h 92 % 0 mm 0 W/m2
01:33 8.8 °C 7.6 °C 1014.4 hPa West 3.2 km/h 9.7 km/h 92 % 0 mm 0 W/m2
01:38 8.9 °C 7.7 °C 1014.8 hPa West 3.2 km/h 12.9 km/h 92 % 0 mm 0 W/m2
01:43 9.3 °C 8.2 °C 1014.4 hPa West 8 km/h 14.5 km/h 93 % 0 mm 0 W/m2
01:48 9.6 °C 8.5 °C 1014.4 hPa West 9.7 km/h 20.9 km/h 93 % 0 mm 0 W/m2
01:53 9.9 °C 8.7 °C 1014.4 hPa West 11.3 km/h 20.9 km/h 92 % 0 mm 0 W/m2
01:58 10.1 °C 8.8 °C 1014.8 hPa West 11.3 km/h 22.5 km/h 92 % 0 mm 0 W/m2
02:03 10.2 °C 8.8 °C 1014.8 hPa West 12.9 km/h 22.5 km/h 91 % 0 mm 0 W/m2
02:08 10.3 °C 8.9 °C 1014.8 hPa West 12.9 km/h 24.1 km/h 91 % 0 mm 0 W/m2
02:13 10.3 °C 8.7 °C 1014.8 hPa West 14.5 km/h 24.1 km/h 90 % 0 mm 0 W/m2
02:18 10.3 °C 8.6 °C 1014.8 hPa West 14.5 km/h 22.5 km/h 89 % 0 mm 0 W/m2
02:23 10.3 °C 8.6 °C 1014.8 hPa West 12.9 km/h 20.9 km/h 89 % 0 mm 0 W/m2
02:28 10.2 °C 8.4 °C 1015.1 hPa West 11.3 km/h 19.3 km/h 89 % 0 mm 0 W/m2
02:33 10.2 °C 8.3 °C 1015.1 hPa West 9.7 km/h 17.7 km/h 88 % 0 mm 0 W/m2
02:38 10.1 °C 8.2 °C 1014.8 hPa West 9.7 km/h 17.7 km/h 88 % 0 mm 0 W/m2
02:43 10.1 °C 8.2 °C 1014.8 hPa West 9.7 km/h 16.1 km/h 88 % 0 mm 0 W/m2
02:48 10 °C 8.1 °C 1014.8 hPa West 9.7 km/h 16.1 km/h 88 % 0 mm 0 W/m2
02:53 9.9 °C 8 °C 1014.8 hPa West 6.4 km/h 12.9 km/h 88 % 0 mm 0 W/m2
02:58 9.8 °C 7.9 °C 1014.8 hPa West 8 km/h 14.5 km/h 88 % 0 mm 0 W/m2
03:03 9.7 °C 7.8 °C 1014.8 hPa West 8 km/h 14.5 km/h 88 % 0 mm 0 W/m2
03:08 9.7 °C 7.8 °C 1014.8 hPa WNW 8 km/h 14.5 km/h 88 % 0 mm 0 W/m2
03:13 9.6 °C 7.7 °C 1014.8 hPa West 8 km/h 14.5 km/h 88 % 0 mm 0 W/m2
03:18 9.7 °C 7.8 °C 1014.4 hPa West 9.7 km/h 17.7 km/h 88 % 0 mm 0 W/m2
03:23 9.7 °C 7.8 °C 1014.4 hPa West 11.3 km/h 19.3 km/h 88 % 0 mm 0 W/m2
03:28 9.8 °C 7.7 °C 1014.4 hPa West 11.3 km/h 19.3 km/h 87 % 0 mm 0 W/m2
03:38 9.7 °C 7.7 °C 1014.4 hPa West 8 km/h 17.7 km/h 87 % 0 mm 0 W/m2
03:43 9.7 °C 7.7 °C 1014.4 hPa WNW 8 km/h 17.7 km/h 87 % 0 mm 0 W/m2
03:48 9.6 °C 7.6 °C 1014.4 hPa WNW 8 km/h 14.5 km/h 87 % 0 mm 0 W/m2
03:53 9.6 °C 7.6 °C 1014.4 hPa West 6.4 km/h 14.5 km/h 87 % 0 mm 0 W/m2
03:58 9.5 °C 7.4 °C 1014.4 hPa West 1.6 km/h 11.3 km/h 87 % 0 mm 0 W/m2
04:03 9.5 °C 7.4 °C 1014.4 hPa Calm     87 % 0 mm 0 W/m2
04:08 9.3 °C 7.2 °C 1014.4 hPa Calm     87 % 0 mm 0 W/m2
04:14 9.2 °C 7.3 °C 1014.4 hPa Calm     88 % 0 mm 0 W/m2
04:19 9.1 °C 7.2 °C 1014.8 hPa Calm   3.2 km/h 88 % 0 mm 0 W/m2
04:24 9 °C 7.1 °C 1014.4 hPa Calm   3.2 km/h 88 % 0 mm 0 W/m2
04:29 8.9 °C 7.2 °C 1014.4 hPa Calm     89 % 0 mm 0 W/m2
04:34 8.9 °C 7.2 °C 1014.8 hPa Calm     89 % 0 mm 0 W/m2
04:39 8.8 °C 7.1 °C 1014.8 hPa Calm   1.6 km/h 89 % 0 mm 0 W/m2
04:44 8.8 °C 7.1 °C 1014.8 hPa West 1.6 km/h 11.3 km/h 89 % 0 mm 0 W/m2
04:49 8.8 °C 7.1 °C 1014.4 hPa WNW 3.2 km/h 11.3 km/h 89 % 0 mm 0 W/m2
04:54 8.9 °C 7.2 °C 1014.4 hPa WNW 3.2 km/h 11.3 km/h 89 % 0 mm 0 W/m2
04:59 9 °C 7.3 °C 1014.4 hPa WNW 3.2 km/h 11.3 km/h 89 % 0 mm 0 W/m2
05:04 9 °C 7.3 °C 1014.4 hPa ESE 1.6 km/h 8 km/h 89 % 0 mm 0 W/m2
05:09 8.9 °C 7.2 °C 1014.4 hPa ESE 1.6 km/h 6.4 km/h 89 % 0 mm 0 W/m2
05:14 8.9 °C 7.2 °C 1014.4 hPa ESE 1.6 km/h 6.4 km/h 89 % 0 mm 0 W/m2
05:15 8.9 °C 7.2 °C 1014.4 hPa East 1.6 km/h 6.4 km/h 89 % 0 mm 0 W/m2
05:20 8.9 °C 7.2 °C 1014.4 hPa East 3.2 km/h 6.4 km/h 89 % 0 mm 0 W/m2
05:25 8.9 °C 7.2 °C 1014.4 hPa Calm   4.8 km/h 89 % 0 mm 0 W/m2
05:30 8.9 °C 7.2 °C 1014.4 hPa SE 1.6 km/h 8 km/h 89 % 0 mm 0 W/m2
05:35 8.9 °C 7.2 °C 1014.4 hPa SE 1.6 km/h 8 km/h 89 % 0 mm 0 W/m2
05:40 8.9 °C 7.2 °C 1014.4 hPa Calm   3.2 km/h 89 % 0 mm 0 W/m2
05:45 8.9 °C 7.2 °C 1014.4 hPa Calm   3.2 km/h 89 % 0 mm 0 W/m2
05:50 8.9 °C 7.2 °C 1014.4 hPa Calm   4.8 km/h 89 % 0 mm 0 W/m2
05:55 8.8 °C 7.1 °C 1014.4 hPa Calm   4.8 km/h 89 % 0 mm 0 W/m2
06:00 8.7 °C 7.2 °C 1014.4 hPa Calm     90 % 0 mm 0 W/m2
06:05 8.7 °C 7.2 °C 1014.4 hPa Calm   4.8 km/h 90 % 0 mm 0 W/m2
06:10 8.6 °C 7.1 °C 1014.4 hPa ENE 1.6 km/h 4.8 km/h 90 % 0 mm 0 W/m2
06:15 8.7 °C 7.2 °C 1014.8 hPa Calm   3.2 km/h 90 % 0 mm 0 W/m2
06:20 8.7 °C 7.3 °C 1014.4 hPa ENE 1.6 km/h 6.4 km/h 91 % 0 mm 0 W/m2
06:25 8.7 °C 7.3 °C 1014.4 hPa ENE 1.6 km/h 6.4 km/h 91 % 0 mm 0 W/m2
06:30 8.8 °C 7.4 °C 1014.4 hPa Calm   3.2 km/h 91 % 0 mm 0 W/m2
06:35 8.8 °C 7.4 °C 1014.4 hPa Calm   3.2 km/h 91 % 0 mm 0 W/m2
06:40 8.9 °C 7.5 °C 1014.4 hPa Calm   3.2 km/h 91 % 0 mm 0 W/m2
06:45 8.9 °C 7.5 °C 1014.4 hPa Calm     91 % 0 mm 0 W/m2
06:50 9 °C 7.6 °C 1014.4 hPa Calm     91 % 0 mm 0 W/m2
06:55 9.1 °C 7.7 °C 1014.4 hPa Calm   4.8 km/h 91 % 0 mm 0 W/m2
07:00 9.1 °C 7.7 °C 1014.4 hPa Calm   4.8 km/h 91 % 0 mm 0 W/m2
07:05 9.2 °C 7.8 °C 1014.4 hPa ENE 1.6 km/h 6.4 km/h 91 % 0 mm 0 W/m2
07:10 9.2 °C 7.8 °C 1014.1 hPa ENE 1.6 km/h 6.4 km/h 91 % 0 mm 0 W/m2
07:15 9.3 °C 7.9 °C 1014.1 hPa ENE 1.6 km/h 3.2 km/h 91 % 0 mm 0 W/m2
07:20 9.3 °C 7.9 °C 1014.1 hPa Calm   3.2 km/h 91 % 0 mm 0 W/m2
07:25 9.3 °C 7.9 °C 1014.1 hPa Calm     91 % 0 mm 0 W/m2
07:30 9.3 °C 7.9 °C 1014.1 hPa Calm     91 % 0 mm 0 W/m2
07:31 9.3 °C 7.9 °C 1014.1 hPa Calm     91 % 0 mm 0 W/m2
07:36 9.3 °C 7.9 °C 1014.1 hPa Calm   6.4 km/h 91 % 0 mm 0 W/m2
07:41 9.2 °C 7.8 °C 1014.1 hPa Calm   6.4 km/h 91 % 0 mm 0 W/m2
07:46 9.2 °C 7.8 °C 1014.1 hPa Calm   6.4 km/h 91 % 0 mm 0 W/m2
07:51 9.2 °C 7.9 °C 1014.1 hPa Calm   3.2 km/h 92 % 0 mm 0 W/m2
07:56 9.3 °C 8.1 °C 1014.1 hPa Calm   3.2 km/h 92 % 0 mm 5 W/m2
08:01 9.3 °C 8.1 °C 1014.1 hPa Calm   3.2 km/h 92 % 0 mm 5 W/m2
08:06 9.4 °C 8.2 °C 1014.1 hPa Calm     92 % 0 mm 7 W/m2
08:11 9.4 °C 8.2 °C 1014.1 hPa Calm     92 % 0 mm 12 W/m2
08:16 9.5 °C 8.3 °C 1014.1 hPa Calm   1.6 km/h 92 % 0 mm 16 W/m2
08:21 9.7 °C 8.6 °C 1014.1 hPa Calm   1.6 km/h 93 % 0 mm 23 W/m2
08:26 9.8 °C 8.7 °C 1014.1 hPa Calm   6.4 km/h 93 % 0 mm 42 W/m2
08:31 9.9 °C 8.8 °C 1014.1 hPa SE 1.6 km/h 8 km/h 93 % 0 mm 44 W/m2
08:36 10.2 °C 9.1 °C 1014.1 hPa SE 1.6 km/h 8 km/h 93 % 0 mm 46 W/m2
08:41 10.3 °C 9.2 °C 1014.1 hPa ESE 1.6 km/h 8 km/h 93 % 0.25 mm 44 W/m2
08:46 10.4 °C 9.3 °C 1014.1 hPa ESE 3.2 km/h 8 km/h 93 % 0.25 mm 49 W/m2
08:51 10.5 °C 9.4 °C 1014.1 hPa SSE 3.2 km/h 8 km/h 93 % 0.25 mm 58 W/m2
09:01 10.7 °C 9.6 °C 1014.4 hPa SSE 3.2 km/h 8 km/h 93 % 0.25 mm 54 W/m2
09:06 10.6 °C 9.5 °C 1014.4 hPa Calm   6.4 km/h 93 % 0.25 mm 32 W/m2
09:11 10.5 °C 9.4 °C 1014.4 hPa ESE 1.6 km/h 6.4 km/h 93 % 0.25 mm 32 W/m2
09:16 10.4 °C 9.3 °C 1014.4 hPa ESE 1.6 km/h 6.4 km/h 93 % 0.25 mm 28 W/m2
09:21 10.4 °C 9.3 °C 1014.1 hPa Calm   3.2 km/h 93 % 0.25 mm 33 W/m2
09:32 10.5 °C 9.6 °C 1014.1 hPa Calm     94 % 0.25 mm 44 W/m2
09:37 10.6 °C 9.7 °C 1014.1 hPa Calm     94 % 0 mm 47 W/m2
09:42 10.7 °C 9.8 °C 1014.1 hPa Calm     94 % 0 mm 44 W/m2
09:47 10.8 °C 9.9 °C 1014.1 hPa SSW 6.4 km/h 11.3 km/h 94 % 0 mm 69 W/m2
09:52 10.9 °C 10.1 °C 1014.1 hPa SW 8 km/h 12.9 km/h 95 % 0 mm 86 W/m2
09:57 11.1 °C 10.3 °C 1014.1 hPa SW 8 km/h 11.3 km/h 95 % 0 mm 88 W/m2
10:02 11.2 °C 10.3 °C 1014.1 hPa SW 6.4 km/h 11.3 km/h 94 % 0 mm 76 W/m2
10:07 11.3 °C 10.4 °C 1014.1 hPa SSW 8 km/h 11.3 km/h 94 % 0 mm 77 W/m2
10:12 11.4 °C 10.4 °C 1014.1 hPa SW 6.4 km/h 9.7 km/h 94 % 0 mm 74 W/m2
10:17 11.5 °C 10.6 °C 1014.1 hPa SSW 9.7 km/h 14.5 km/h 94 % 0 mm 72 W/m2
10:22 11.6 °C 10.7 °C 1014.1 hPa SSW 8 km/h 12.9 km/h 94 % 0 mm 54 W/m2
10:27 11.6 °C 10.7 °C 1014.1 hPa SSW 6.4 km/h 12.9 km/h 94 % 0 mm 53 W/m2
10:32 11.6 °C 10.7 °C 1014.1 hPa SSW 6.4 km/h 11.3 km/h 94 % 0 mm 63 W/m2
10:37 11.7 °C 10.8 °C 1014.1 hPa SSW 4.8 km/h 9.7 km/h 94 % 0 mm 70 W/m2
10:42 11.7 °C 10.8 °C 1014.1 hPa Calm   3.2 km/h 94 % 0 mm 76 W/m2
10:47 11.8 °C 10.7 °C 1014.1 hPa Calm   3.2 km/h 93 % 0 mm 84 W/m2
10:52 11.8 °C 10.7 °C 1014.1 hPa Calm   1.6 km/h 93 % 0 mm 81 W/m2
10:54 11.8 °C 10.7 °C 1014.1 hPa South 1.6 km/h 12.9 km/h 93 % 0 mm 77 W/m2
10:59 11.9 °C 10.8 °C 1014.1 hPa Calm   6.4 km/h 93 % 0 mm 100 W/m2
11:04 11.9 °C 10.9 °C 1014.1 hPa SSW 6.4 km/h 11.3 km/h 94 % 0 mm 98 W/m2
11:09 12.1 °C 11.2 °C 1014.1 hPa SSW 6.4 km/h 17.7 km/h 94 % 0 mm 98 W/m2
11:14 12.1 °C 11 °C 1014.1 hPa SSW 8 km/h 12.9 km/h 93 % 0 mm 84 W/m2
11:19 12.1 °C 11 °C 1014.1 hPa SSW 9.7 km/h 14.5 km/h 93 % 0 mm 88 W/m2
11:24 12.2 °C 11.1 °C 1014.1 hPa SSW 8 km/h 14.5 km/h 93 % 0 mm 84 W/m2
11:29 12.2 °C 11.1 °C 1014.1 hPa SSW 9.7 km/h 17.7 km/h 93 % 0 mm 77 W/m2
11:34 12.2 °C 11.1 °C 1014.1 hPa South 8 km/h 9.7 km/h 93 % 0 mm 86 W/m2
11:39 12.3 °C 11.2 °C 1014.1 hPa SW 4.8 km/h 11.3 km/h 93 % 0 mm 88 W/m2
11:44 12.3 °C 11.2 °C 1014.1 hPa South 4.8 km/h 12.9 km/h 93 % 0 mm 81 W/m2
11:49 12.4 °C 11.3 °C 1014.1 hPa SSW 1.6 km/h 6.4 km/h 93 % 0 mm 79 W/m2
11:54 12.4 °C 11.3 °C 1014.1 hPa South 1.6 km/h 8 km/h 93 % 0 mm 98 W/m2
11:59 12.5 °C 11.4 °C 1014.1 hPa South 1.6 km/h 6.4 km/h 93 % 0 mm 109 W/m2
12:04 12.6 °C 11.5 °C 1014.1 hPa SW 3.2 km/h 8 km/h 93 % 0 mm 79 W/m2
12:09 12.6 °C 11.5 °C 1014.1 hPa South 6.4 km/h 12.9 km/h 93 % 0 mm 74 W/m2
12:14 12.7 °C 11.6 °C 1014.1 hPa South 3.2 km/h 9.7 km/h 93 % 0 mm 113 W/m2
12:19 12.7 °C 11.6 °C 1014.1 hPa South 4.8 km/h 16.1 km/h 93 % 0 mm 135 W/m2
12:24 12.8 °C 11.7 °C 1014.1 hPa SSW 8 km/h 12.9 km/h 93 % 0 mm 132 W/m2
12:29 12.9 °C 11.8 °C 1014.1 hPa SSW 12.9 km/h 22.5 km/h 93 % 0 mm 114 W/m2
12:34 13.1 °C 11.8 °C 1013.8 hPa SSW 9.7 km/h 16.1 km/h 92 % 0 mm 130 W/m2
12:39 13.2 °C 11.9 °C 1013.8 hPa SSW 6.4 km/h 12.9 km/h 92 % 0 mm 153 W/m2
12:44 13.3 °C 12 °C 1014.1 hPa SSW 8 km/h 11.3 km/h 92 % 0 mm 202 W/m2
12:49 13.5 °C 12.2 °C 1013.8 hPa SSE 4.8 km/h 12.9 km/h 92 % 0 mm 202 W/m2
12:54 13.7 °C 12.4 °C 1013.8 hPa SW 3.2 km/h 9.7 km/h 92 % 0 mm 190 W/m2
12:59 13.8 °C 12.3 °C 1013.8 hPa SSE 6.4 km/h 12.9 km/h 91 % 0 mm 185 W/m2
13:04 13.9 °C 12.3 °C 1013.8 hPa South 11.3 km/h 17.7 km/h 90 % 0 mm 318 W/m2
13:09 14.2 °C 12.9 °C 1013.8 hPa SSW 8 km/h 12.9 km/h 92 % 0 mm 564 W/m2
13:14 14.6 °C 13 °C 1013.4 hPa SSW 12.9 km/h 19.3 km/h 90 % 0 mm 504 W/m2
13:19 14.8 °C 13 °C 1013.4 hPa South 8 km/h 14.5 km/h 89 % 0 mm 489 W/m2
13:24 15.2 °C 13.2 °C 1013.4 hPa SSW 8 km/h 12.9 km/h 88 % 0 mm 513 W/m2
13:29 15.4 °C 13.2 °C 1013.4 hPa South 6.4 km/h 11.3 km/h 87 % 0 mm 617 W/m2
13:39 15.6 °C 13.1 °C 1013.4 hPa SW 11.3 km/h 16.1 km/h 85 % 0 mm 265 W/m2
13:45 15.4 °C 12.7 °C 1013.4 hPa SSW 6.4 km/h 17.7 km/h 84 % 0 mm 200 W/m2
13:50 15.3 °C 12.8 °C 1013.4 hPa SSW 9.7 km/h 14.5 km/h 85 % 0 mm 230 W/m2
13:55 15.4 °C 12.9 °C 1013.4 hPa SSW 11.3 km/h 16.1 km/h 85 % 0 mm 237 W/m2
14:00 15.4 °C 12.9 °C 1013.4 hPa SW 11.3 km/h 17.7 km/h 85 % 0 mm 341 W/m2
14:05 15.5 °C 13 °C 1013.4 hPa SW 8 km/h 12.9 km/h 85 % 0 mm 181 W/m2
14:10 15.4 °C 12.9 °C 1013.4 hPa SW 9.7 km/h 12.9 km/h 85 % 0 mm 134 W/m2
14:15 15.3 °C 12.9 °C 1013.4 hPa WSW 11.3 km/h 16.1 km/h 86 % 0 mm 146 W/m2
14:20 15.2 °C 12.7 °C 1013.4 hPa SW 16.1 km/h 22.5 km/h 85 % 0 mm 149 W/m2
14:25 15.2 °C 12.9 °C 1013.4 hPa SW 11.3 km/h 16.1 km/h 86 % 0 mm 190 W/m2
14:30 15.2 °C 12.9 °C 1013.4 hPa SW 9.7 km/h 12.9 km/h 86 % 0 mm 155 W/m2
14:35 15.3 °C 12.9 °C 1013.4 hPa WSW 6.4 km/h 11.3 km/h 86 % 0 mm 151 W/m2
14:40 15.3 °C 12.9 °C 1013.4 hPa WSW 8 km/h 11.3 km/h 86 % 0 mm 255 W/m2
14:45 15.3 °C 12.9 °C 1013.4 hPa SSW 9.7 km/h 17.7 km/h 86 % 0 mm 146 W/m2
14:50 15.4 °C 13.1 °C 1013.4 hPa South 8 km/h 11.3 km/h 86 % 0 mm 120 W/m2
14:55 15.4 °C 13.1 °C 1013.4 hPa SSW 8 km/h 19.3 km/h 86 % 0 mm 128 W/m2
15:00 15.6 °C 13.3 °C 1013.4 hPa SSW 12.9 km/h 19.3 km/h 86 % 0 mm 253 W/m2
15:05 15.8 °C 13.4 °C 1013.4 hPa SSW 4.8 km/h 12.9 km/h 86 % 0 mm 538 W/m2
15:10 16.3 °C 13.9 °C 1013.4 hPa WSW 6.4 km/h 9.7 km/h 86 % 0 mm 508 W/m2
15:15 16.7 °C 13.8 °C 1013.4 hPa SSW 11.3 km/h 17.7 km/h 83 % 0 mm 504 W/m2
15:20 16.9 °C 13.8 °C 1013.1 hPa WSW 9.7 km/h 17.7 km/h 82 % 0 mm 165 W/m2
15:25 16.8 °C 13.7 °C 1013.1 hPa SSW 8 km/h 11.3 km/h 82 % 0 mm 158 W/m2
15:30 16.6 °C 13.5 °C 1013.1 hPa SSW 11.3 km/h 14.5 km/h 82 % 0 mm 121 W/m2
15:35 16.3 °C 13.4 °C 1013.1 hPa SW 11.3 km/h 14.5 km/h 83 % 0 mm 111 W/m2
15:40 16.1 °C 13.4 °C 1013.1 hPa SSW 11.3 km/h 16.1 km/h 84 % 0 mm 118 W/m2
15:45 15.9 °C 13.2 °C 1013.1 hPa SSW 9.7 km/h 14.5 km/h 84 % 0 mm 123 W/m2
15:50 15.9 °C 13.4 °C 1013.4 hPa SW 9.7 km/h 14.5 km/h 85 % 0 mm 174 W/m2
15:55 15.9 °C 13.6 °C 1013.4 hPa SW 8 km/h 11.3 km/h 86 % 0 mm 100 W/m2
16:00 16.1 °C 13.8 °C 1013.4 hPa WSW 8 km/h 12.9 km/h 86 % 0 mm 197 W/m2
16:05 16.2 °C 13.7 °C 1013.1 hPa South 12.9 km/h 19.3 km/h 85 % 0 mm 292 W/m2
16:10 16.3 °C 13.8 °C 1013.1 hPa SSW 9.7 km/h 14.5 km/h 85 % 0 mm 230 W/m2
16:15 16.3 °C 13.8 °C 1013.1 hPa SSW 9.7 km/h 16.1 km/h 85 % 0 mm 244 W/m2
16:20 16.2 °C 13.7 °C 1013.4 hPa SSW 9.7 km/h 12.9 km/h 85 % 0 mm 200 W/m2
16:25 16.2 °C 13.7 °C 1013.1 hPa SSW 11.3 km/h 16.1 km/h 85 % 0 mm 95 W/m2
16:30 16.2 °C 13.7 °C 1013.4 hPa SW 9.7 km/h 16.1 km/h 85 % 0 mm 104 W/m2
16:35 16.1 °C 13.6 °C 1013.4 hPa SSW 9.7 km/h 14.5 km/h 85 % 0 mm 67 W/m2
16:40 16 °C 13.5 °C 1013.1 hPa SSW 8 km/h 11.3 km/h 85 % 0 mm 39 W/m2
16:45 15.9 °C 13.6 °C 1013.1 hPa South 6.4 km/h 12.9 km/h 86 % 0 mm 35 W/m2
16:50 15.8 °C 13.4 °C 1013.1 hPa Calm   3.2 km/h 86 % 0 mm 30 W/m2
16:55 15.8 °C 13.4 °C 1013.1 hPa South 1.6 km/h 3.2 km/h 86 % 0 mm 23 W/m2
17:00 15.8 °C 13.4 °C 1013.4 hPa SSE 1.6 km/h 8 km/h 86 % 0 mm 35 W/m2
17:05 15.8 °C 13.7 °C 1013.4 hPa SSW 8 km/h 12.9 km/h 87 % 0 mm 19 W/m2
17:10 15.7 °C 13.6 °C 1013.4 hPa SW 6.4 km/h 12.9 km/h 87 % 0 mm 42 W/m2
17:15 15.7 °C 13.6 °C 1013.4 hPa SW 9.7 km/h 12.9 km/h 87 % 0 mm 37 W/m2
17:20 15.7 °C 13.6 °C 1013.1 hPa SW 9.7 km/h 12.9 km/h 87 % 0 mm 26 W/m2
17:25 15.6 °C 13.6 °C 1013.4 hPa SW 11.3 km/h 14.5 km/h 88 % 0 mm 18 W/m2
17:30 15.6 °C 13.6 °C 1013.1 hPa SW 9.7 km/h 12.9 km/h 88 % 0 mm 9 W/m2
17:35 15.5 °C 13.3 °C 1013.1 hPa SW 6.4 km/h 11.3 km/h 87 % 0 mm 7 W/m2
17:40 15.4 °C 13.4 °C 1013.1 hPa SW 3.2 km/h 8 km/h 88 % 0 mm 5 W/m2
17:45 15.4 °C 13.4 °C 1013.1 hPa SW 3.2 km/h 9.7 km/h 88 % 0 mm 5 W/m2
17:51 15.3 °C 13.3 °C 1013.1 hPa SW 3.2 km/h 11.3 km/h 88 % 0 mm 0 W/m2
17:56 15.3 °C 13.5 °C 1013.1 hPa SW 3.2 km/h 9.7 km/h 89 % 0 mm 0 W/m2
18:01 15.3 °C 13.5 °C 1013.4 hPa WSW 1.6 km/h 8 km/h 89 % 0 mm 0 W/m2
18:11 15.3 °C 13.5 °C 1013.1 hPa SW 8 km/h 9.7 km/h 89 % 0 mm 0 W/m2
18:16 15.2 °C 13.4 °C 1013.4 hPa SW 3.2 km/h 9.7 km/h 89 % 0 mm 0 W/m2
18:21 15.2 °C 13.4 °C 1013.4 hPa SW 8 km/h 12.9 km/h 89 % 0 mm 0 W/m2
18:26 15.2 °C 13.4 °C 1013.4 hPa SSW 8 km/h 16.1 km/h 89 % 0 mm 0 W/m2
18:31 15.2 °C 13.4 °C 1013.4 hPa SSE 4.8 km/h 9.7 km/h 89 % 0 mm 0 W/m2
18:36 15.2 °C 13.4 °C 1013.4 hPa SE 8 km/h 12.9 km/h 89 % 0 mm 0 W/m2
18:41 15.1 °C 13.3 °C 1013.4 hPa SSE 1.6 km/h 8 km/h 89 % 0 mm 0 W/m2
18:46 15 °C 13.4 °C 1013.4 hPa SSE 1.6 km/h 8 km/h 90 % 0 mm 0 W/m2
18:51 14.9 °C 13.3 °C 1013.4 hPa SE 1.6 km/h 6.4 km/h 90 % 0 mm 0 W/m2
18:56 14.9 °C 13.3 °C 1013.8 hPa SE 3.2 km/h 8 km/h 90 % 0 mm 0 W/m2
19:01 14.8 °C 13.2 °C 1013.8 hPa SSE 3.2 km/h 9.7 km/h 90 % 0 mm 0 W/m2
19:06 14.8 °C 13.2 °C 1013.8 hPa SSE 1.6 km/h 4.8 km/h 90 % 0 mm 0 W/m2
19:16 14.7 °C 13.2 °C 1013.8 hPa SE 4.8 km/h 9.7 km/h 91 % 0 mm 0 W/m2
19:21 14.6 °C 13.2 °C 1013.8 hPa SE 1.6 km/h 6.4 km/h 91 % 0 mm 0 W/m2
19:26 14.6 °C 13.2 °C 1013.8 hPa Calm     91 % 0 mm 0 W/m2
19:31 14.6 °C 13.2 °C 1013.8 hPa SSE 1.6 km/h 6.4 km/h 91 % 0 mm 0 W/m2
19:36 14.5 °C 13.1 °C 1013.8 hPa SSE 1.6 km/h 6.4 km/h 91 % 0 mm 0 W/m2
19:41 14.4 °C 12.9 °C 1013.8 hPa Calm     91 % 0 mm 0 W/m2
19:46 14.4 °C 12.9 °C 1013.8 hPa Calm   3.2 km/h 91 % 0 mm 0 W/m2
19:51 14.3 °C 13 °C 1013.8 hPa West 3.2 km/h 9.7 km/h 92 % 0 mm 0 W/m2
19:56 14.3 °C 13 °C 1013.8 hPa Calm   1.6 km/h 92 % 0 mm 0 W/m2
20:01 14.3 °C 13 °C 1013.4 hPa SSW 3.2 km/h 11.3 km/h 92 % 0 mm 0 W/m2
20:06 14.4 °C 13.3 °C 1013.4 hPa South 6.4 km/h 11.3 km/h 93 % 0 mm 0 W/m2
20:11 14.4 °C 13.3 °C 1013.4 hPa SSW 6.4 km/h 9.7 km/h 93 % 0 mm 0 W/m2
20:16 14.4 °C 13.3 °C 1013.4 hPa SSW 6.4 km/h 11.3 km/h 93 % 0 mm 0 W/m2
20:21 14.5 °C 13.4 °C 1013.4 hPa SSW 6.4 km/h 9.7 km/h 93 % 0 mm 0 W/m2
20:26 14.5 °C 13.4 °C 1013.4 hPa WSW 6.4 km/h 11.3 km/h 93 % 0 mm 0 W/m2
20:32 14.5 °C 13.4 °C 1013.4 hPa WSW 1.6 km/h 8 km/h 93 % 0 mm 0 W/m2
20:37 14.4 °C 13.3 °C 1013.4 hPa SW 8 km/h 11.3 km/h 93 % 0 mm 0 W/m2
20:42 14.5 °C 13.4 °C 1013.4 hPa SSW 9.7 km/h 14.5 km/h 93 % 0 mm 0 W/m2
20:47 14.6 °C 13.5 °C 1013.4 hPa SSW 8 km/h 14.5 km/h 93 % 0 mm 0 W/m2
20:52 14.7 °C 13.6 °C 1013.4 hPa SSW 11.3 km/h 14.5 km/h 93 % 0 mm 0 W/m2
20:57 14.7 °C 13.6 °C 1013.4 hPa SSW 11.3 km/h 16.1 km/h 93 % 0 mm 0 W/m2
21:02 14.7 °C 13.6 °C 1013.8 hPa SW 9.7 km/h 12.9 km/h 93 % 0 mm 0 W/m2
21:07 14.7 °C 13.6 °C 1013.4 hPa SSW 9.7 km/h 12.9 km/h 93 % 0 mm 0 W/m2
21:12 14.8 °C 13.5 °C 1013.8 hPa SSW 8 km/h 11.3 km/h 92 % 0 mm 0 W/m2
21:17 14.7 °C 13.4 °C 1013.8 hPa SW 1.6 km/h 3.2 km/h 92 % 0 mm 0 W/m2
21:22 14.7 °C 13.4 °C 1013.8 hPa Calm     92 % 0 mm 0 W/m2
21:27 14.6 °C 13.3 °C 1013.8 hPa SW 3.2 km/h 9.7 km/h 92 % 0 mm 0 W/m2
21:32 14.6 °C 13.3 °C 1013.8 hPa West 6.4 km/h 11.3 km/h 92 % 0 mm 0 W/m2
21:37 14.7 °C 13.4 °C 1013.8 hPa WSW 8 km/h 12.9 km/h 92 % 0 mm 0 W/m2
21:42 14.7 °C 13.4 °C 1013.8 hPa WSW 1.6 km/h 6.4 km/h 92 % 0 mm 0 W/m2
21:47 14.7 °C 13.4 °C 1013.8 hPa Calm   3.2 km/h 92 % 0 mm 0 W/m2
21:52 14.7 °C 13.4 °C 1013.8 hPa SW 1.6 km/h 8 km/h 92 % 0 mm 0 W/m2
21:57 14.7 °C 13.4 °C 1013.8 hPa WSW 6.4 km/h 11.3 km/h 92 % 0 mm 0 W/m2
22:02 14.7 °C 13.2 °C 1013.8 hPa SW 4.8 km/h 12.9 km/h 91 % 0 mm 0 W/m2
22:07 14.7 °C 13.2 °C 1013.8 hPa WSW 3.2 km/h 8 km/h 91 % 0 mm 0 W/m2
22:12 14.6 °C 13.2 °C 1013.8 hPa WSW 6.4 km/h 11.3 km/h 91 % 0 mm 0 W/m2
22:17 14.7 °C 13.2 °C 1013.8 hPa WSW 8 km/h 11.3 km/h 91 % 0 mm 0 W/m2
22:22 14.6 °C 13.2 °C 1014.1 hPa West 6.4 km/h 9.7 km/h 91 % 0 mm 0 W/m2
22:27 14.7 °C 13.2 °C 1014.1 hPa WSW 8 km/h 11.3 km/h 91 % 0 mm 0 W/m2
22:32 14.7 °C 13.1 °C 1014.1 hPa West 8 km/h 12.9 km/h 90 % 0 mm 0 W/m2
22:37 14.7 °C 13.1 °C 1014.1 hPa WSW 6.4 km/h 9.7 km/h 90 % 0 mm 0 W/m2
22:42 14.7 °C 13.1 °C 1014.1 hPa WSW 6.4 km/h 8 km/h 90 % 0 mm 0 W/m2
22:47 14.7 °C 13.1 °C 1014.1 hPa West 8 km/h 11.3 km/h 90 % 0 mm 0 W/m2
22:52 14.7 °C 13.1 °C 1014.4 hPa West 9.7 km/h 12.9 km/h 90 % 0 mm 0 W/m2
22:57 14.7 °C 13.1 °C 1014.1 hPa SW 4.8 km/h 8 km/h 90 % 0 mm 0 W/m2
23:02 14.7 °C 12.9 °C 1014.1 hPa SSW 8 km/h 11.3 km/h 89 % 0 mm 0 W/m2
23:07 14.7 °C 12.9 °C 1014.1 hPa SSW 6.4 km/h 11.3 km/h 89 % 0 mm 0 W/m2
23:12 14.7 °C 12.9 °C 1014.1 hPa SSW 9.7 km/h 14.5 km/h 89 % 0 mm 0 W/m2
23:18 14.7 °C 12.7 °C 1014.4 hPa SSW 9.7 km/h 14.5 km/h 88 % 0 mm 0 W/m2
23:23 14.7 °C 12.7 °C 1014.4 hPa SSW 8 km/h 14.5 km/h 88 % 0 mm 0 W/m2
23:28 14.7 °C 12.7 °C 1014.4 hPa SSW 9.7 km/h 14.5 km/h 88 % 0 mm 0 W/m2
23:33 14.7 °C 12.7 °C 1014.4 hPa SW 6.4 km/h 12.9 km/h 88 % 0 mm 0 W/m2
23:38 14.6 °C 12.6 °C 1014.4 hPa West 4.8 km/h 11.3 km/h 88 % 0 mm 0 W/m2
23:43 14.6 °C 12.6 °C 1014.4 hPa WSW 8 km/h 11.3 km/h 88 % 0 mm 0 W/m2
23:48 14.4 °C 12.4 °C 1014.4 hPa WSW 8 km/h 16.1 km/h 88 % 0 mm 0 W/m2
23:53 14.4 °C 12.4 °C 1014.4 hPa SW 9.7 km/h 12.9 km/h 88 % 0 mm 0 W/m2
23:58 14.3 °C 12.3 °C 1014.4 hPa WSW 9.7 km/h 14.5 km/h 88 % 0 mm 0 W/m2
Delerius-Weather
Compliments of Weather Underground - 2.25 mb

Data updates at regular intervals.